createdAt,value
2023-04-07T00:02:06.616Z,61.51
2023-04-07T00:04:33.444Z,62.97
2023-04-07T00:07:00.142Z,62.16
2023-04-07T00:09:26.776Z,62.30
2023-04-07T00:11:53.362Z,62.35
2023-04-07T00:14:20.022Z,62.49
2023-04-07T00:16:46.736Z,62.99
2023-04-07T00:19:13.340Z,63.18
2023-04-07T00:21:39.924Z,62.05
2023-04-07T00:24:06.627Z,63.01
2023-04-07T00:26:33.283Z,63.10
2023-04-07T00:28:59.964Z,63.10
2023-04-07T00:31:26.765Z,64.36
2023-04-07T00:33:53.503Z,64.29
2023-04-07T00:36:20.533Z,64.52
2023-04-07T00:38:47.244Z,65.10
2023-04-07T00:41:13.924Z,65.04
2023-04-07T00:43:40.689Z,65.54
2023-04-07T00:46:07.596Z,64.99
2023-04-07T00:48:34.336Z,65.80
2023-04-07T00:51:01.062Z,66.51
2023-04-07T00:53:27.728Z,66.16
2023-04-07T00:55:54.581Z,66.05
2023-04-07T00:58:21.331Z,66.62
2023-04-07T01:01:05.051Z,66.54
2023-04-07T01:03:35.737Z,66.08
2023-04-07T01:06:02.964Z,65.25
2023-04-07T01:08:50.092Z,66.00
2023-04-07T01:11:31.067Z,65.93
2023-04-07T01:13:59.262Z,66.79
2023-04-07T01:16:33.297Z,66.78
2023-04-07T01:19:09.046Z,67.02
2023-04-07T01:21:37.474Z,66.21
2023-04-07T01:24:13.268Z,66.61
2023-04-07T01:26:40.725Z,66.98
2023-04-07T01:29:27.938Z,67.09
2023-04-07T01:31:58.880Z,66.40
2023-04-07T01:34:26.941Z,66.62
2023-04-07T01:36:54.921Z,67.32
2023-04-07T01:39:22.067Z,66.45
2023-04-07T01:41:49.523Z,67.17
2023-04-07T01:44:16.357Z,66.59
2023-04-07T01:46:42.981Z,66.68
2023-04-07T01:49:12.031Z,65.94
2023-04-07T01:51:38.767Z,65.91
2023-04-07T01:54:05.928Z,66.27
2023-04-07T01:56:32.532Z,66.07
2023-04-07T01:58:59.194Z,66.64
2023-04-07T02:01:26.302Z,67.02
2023-04-07T02:03:55.886Z,67.15
2023-04-07T02:06:25.079Z,66.75
2023-04-07T02:08:54.553Z,66.43
2023-04-07T02:11:22.364Z,66.74
2023-04-07T02:13:49.304Z,66.42
2023-04-07T02:16:16.841Z,66.38
2023-04-07T02:18:44.972Z,66.59
2023-04-07T02:21:12.209Z,66.12
2023-04-07T02:23:38.891Z,67.21
2023-04-07T02:26:05.551Z,66.31
2023-04-07T02:28:32.254Z,66.82
2023-04-07T02:30:58.835Z,66.42
2023-04-07T02:33:25.569Z,65.76
2023-04-07T02:35:52.220Z,65.34
2023-04-07T02:38:18.952Z,65.26
2023-04-07T02:40:45.618Z,65.22
2023-04-07T02:43:12.283Z,65.51
2023-04-07T02:45:38.916Z,65.70
2023-04-07T02:48:05.731Z,66.02
2023-04-07T02:50:32.362Z,66.05
2023-04-07T02:52:58.919Z,66.33
2023-04-07T02:55:25.624Z,66.16
2023-04-07T02:57:52.351Z,66.11
2023-04-07T03:00:19.032Z,66.04
2023-04-07T03:02:45.848Z,66.92
2023-04-07T03:05:12.614Z,66.67
2023-04-07T03:07:39.198Z,67.40
2023-04-07T03:10:05.986Z,66.73
2023-04-07T03:12:32.653Z,67.11
2023-04-07T03:14:59.358Z,66.40
2023-04-07T03:17:26.457Z,67.14
2023-04-07T03:19:53.168Z,66.67
2023-04-07T03:22:19.760Z,67.02
2023-04-07T03:24:46.397Z,66.70
2023-04-07T03:27:13.091Z,66.93
2023-04-07T03:29:39.708Z,66.83
2023-04-07T03:32:06.490Z,67.26
2023-04-07T03:34:33.129Z,66.77
2023-04-07T03:36:59.720Z,66.40
2023-04-07T03:39:26.357Z,66.69
2023-04-07T03:41:53.039Z,65.92
2023-04-07T03:44:19.666Z,66.23
2023-04-07T03:46:48.357Z,66.03
2023-04-07T03:49:15.028Z,66.92
2023-04-07T03:51:41.905Z,65.66
2023-04-07T03:54:08.500Z,66.07
2023-04-07T03:56:35.186Z,65.92
2023-04-07T03:59:01.870Z,66.39
2023-04-07T04:01:28.525Z,67.40
2023-04-07T04:03:55.487Z,66.49
2023-04-07T04:06:22.520Z,66.36
2023-04-07T04:08:49.157Z,66.46
2023-04-07T04:11:15.886Z,66.25
2023-04-07T04:13:42.527Z,66.12
2023-04-07T04:16:09.289Z,66.08
2023-04-07T04:18:36.130Z,66.78
2023-04-07T04:21:02.690Z,66.64
2023-04-07T04:23:29.315Z,66.38
2023-04-07T04:25:57.115Z,66.67
2023-04-07T04:28:23.686Z,65.93
2023-04-07T04:30:50.478Z,66.38
2023-04-07T04:33:17.083Z,66.29
2023-04-07T04:35:45.129Z,66.44
2023-04-07T04:38:11.833Z,66.24
2023-04-07T04:40:38.435Z,66.97
2023-04-07T04:43:10.123Z,67.43
2023-04-07T04:45:36.905Z,67.38
2023-04-07T04:48:03.665Z,67.54
2023-04-07T04:50:30.449Z,67.84
2023-04-07T04:52:57.036Z,67.68
2023-04-07T04:55:23.712Z,67.39
2023-04-07T04:57:50.522Z,67.59
2023-04-07T05:00:17.280Z,67.69
2023-04-07T05:02:44.702Z,67.67
2023-04-07T05:05:11.612Z,68.17
2023-04-07T05:07:40.431Z,68.21
2023-04-07T05:10:07.713Z,67.98
2023-04-07T05:12:34.384Z,68.62
2023-04-07T05:15:01.071Z,68.49
2023-04-07T05:17:27.780Z,68.41
2023-04-07T05:19:54.467Z,68.01
2023-04-07T05:22:21.628Z,69.59
2023-04-07T05:24:48.255Z,68.41
2023-04-07T05:27:14.863Z,67.59
2023-04-07T05:29:41.768Z,68.48
2023-04-07T05:32:08.517Z,68.08
2023-04-07T05:34:35.140Z,67.96
2023-04-07T05:37:01.743Z,67.50
2023-04-07T05:39:28.561Z,68.00
2023-04-07T05:41:55.187Z,67.47
2023-04-07T05:44:21.830Z,68.05
2023-04-07T05:46:48.407Z,67.48
2023-04-07T05:49:20.185Z,67.97
2023-04-07T05:51:48.832Z,67.71
2023-04-07T05:54:15.909Z,68.19
2023-04-07T05:56:42.791Z,67.13
2023-04-07T05:59:10.085Z,66.03
2023-04-07T06:01:36.723Z,67.24
2023-04-07T06:04:04.438Z,66.57
2023-04-07T06:06:32.509Z,66.34
2023-04-07T06:08:59.241Z,67.18
2023-04-07T06:11:27.304Z,66.70
2023-04-07T06:13:55.606Z,67.29
2023-04-07T06:16:22.299Z,67.91
2023-04-07T06:18:48.966Z,67.40
2023-04-07T06:21:16.022Z,67.40
2023-04-07T06:23:42.730Z,68.43
2023-04-07T06:26:11.547Z,67.50
2023-04-07T06:28:38.480Z,68.57
2023-04-07T06:31:05.313Z,66.51
2023-04-07T06:33:32.036Z,66.52
2023-04-07T06:35:58.719Z,66.94
2023-04-07T06:38:25.447Z,66.91
2023-04-07T06:40:52.086Z,67.27
2023-04-07T06:43:18.828Z,65.99
2023-04-07T06:45:45.760Z,65.60
2023-04-07T06:48:12.385Z,66.09
2023-04-07T06:50:38.988Z,64.25
2023-04-07T06:53:06.163Z,64.03
2023-04-07T06:55:32.849Z,63.25
2023-04-07T06:57:59.554Z,63.58
2023-04-07T07:00:27.185Z,63.08
2023-04-07T07:02:53.959Z,63.77
2023-04-07T07:05:20.949Z,61.84
2023-04-07T07:07:47.510Z,61.80
2023-04-07T07:10:14.217Z,62.40
2023-04-07T07:12:41.014Z,60.76
2023-04-07T07:15:07.754Z,61.41
2023-04-07T07:17:34.630Z,62.30
2023-04-07T07:20:01.317Z,62.93
2023-04-07T07:22:27.977Z,62.26
2023-04-07T07:24:54.647Z,61.27
2023-04-07T07:27:21.425Z,60.83
2023-04-07T07:29:48.054Z,61.37
2023-04-07T07:32:14.663Z,62.54
2023-04-07T07:34:41.582Z,59.98
2023-04-07T07:37:08.277Z,57.83
2023-04-07T07:39:34.906Z,56.52
2023-04-07T07:42:01.724Z,55.96
2023-04-07T07:44:29.317Z,57.85
2023-04-07T07:46:57.414Z,61.20
2023-04-07T07:49:24.020Z,60.31
2023-04-07T07:51:50.618Z,59.64
2023-04-07T07:54:17.209Z,59.39
2023-04-07T07:56:43.863Z,59.57
2023-04-07T07:59:10.497Z,58.15
2023-04-07T08:01:37.156Z,55.20
2023-04-07T08:04:04.052Z,55.70
2023-04-07T08:06:31.594Z,55.89
2023-04-07T08:08:58.938Z,55.62
2023-04-07T08:11:25.851Z,54.88
2023-04-07T08:13:54.040Z,53.52
2023-04-07T08:16:22.289Z,52.84
2023-04-07T08:18:49.404Z,51.76
2023-04-07T08:21:16.257Z,51.45
2023-04-07T08:23:42.980Z,51.38
2023-04-07T08:26:09.693Z,51.70
2023-04-07T08:28:36.593Z,49.30
2023-04-07T08:31:03.755Z,49.22
2023-04-07T08:33:30.587Z,48.09
2023-04-07T08:35:57.658Z,46.39
2023-04-07T08:38:24.441Z,46.05
2023-04-07T08:40:55.031Z,46.58
2023-04-07T08:43:22.734Z,46.54
2023-04-07T08:45:51.771Z,47.20
2023-04-07T08:48:23.304Z,47.43
2023-04-07T08:50:53.006Z,46.87
2023-04-07T08:53:24.351Z,47.04
2023-04-07T08:55:51.361Z,46.15
2023-04-07T08:58:18.427Z,46.04
2023-04-07T09:00:47.006Z,46.07
2023-04-07T09:03:13.971Z,45.79
2023-04-07T09:05:41.004Z,45.32
2023-04-07T09:08:07.634Z,44.96
2023-04-07T09:10:34.246Z,45.31
2023-04-07T09:13:00.893Z,45.04
2023-04-07T09:15:31.337Z,45.48
2023-04-07T09:17:58.686Z,45.74
2023-04-07T09:20:25.925Z,45.37
2023-04-07T09:22:52.678Z,45.00
2023-04-07T09:25:22.908Z,45.05
2023-04-07T09:27:55.711Z,45.41
2023-04-07T09:30:25.560Z,44.71
2023-04-07T09:32:52.711Z,44.33
2023-04-07T09:35:19.489Z,43.60
2023-04-07T09:38:01.026Z,44.46
2023-04-07T09:40:27.947Z,44.69
2023-04-07T09:42:54.794Z,45.59
2023-04-07T09:45:34.077Z,45.24
2023-04-07T09:48:05.766Z,45.56
2023-04-07T09:50:37.011Z,45.82
2023-04-07T09:53:05.062Z,45.84
2023-04-07T09:55:31.919Z,46.54
2023-04-07T09:57:58.588Z,47.00
2023-04-07T10:00:25.777Z,46.07
2023-04-07T10:02:53.448Z,46.01
2023-04-07T10:05:22.920Z,46.68
2023-04-07T10:07:49.701Z,46.22
2023-04-07T10:10:16.930Z,46.00
2023-04-07T10:12:43.621Z,44.32
2023-04-07T10:15:13.693Z,44.66
2023-04-07T10:17:40.497Z,43.95
2023-04-07T10:20:10.745Z,43.90
2023-04-07T10:22:38.417Z,43.76
2023-04-07T10:25:09.942Z,43.43
2023-04-07T10:27:50.117Z,42.93
2023-04-07T10:30:22.618Z,42.90
2023-04-07T10:32:50.042Z,42.32
2023-04-07T10:35:17.460Z,42.67
2023-04-07T10:38:02.697Z,43.60
2023-04-07T10:40:30.102Z,43.63
2023-04-07T10:42:57.202Z,43.98
2023-04-07T10:45:43.262Z,44.21
2023-04-07T10:48:10.711Z,43.71
2023-04-07T10:50:37.673Z,43.93
2023-04-07T10:53:10.747Z,43.38
2023-04-07T10:55:37.831Z,43.63
2023-04-07T10:58:14.491Z,43.49
2023-04-07T11:00:41.108Z,44.09
2023-04-07T11:03:14.339Z,43.83
2023-04-07T11:05:41.432Z,43.68
2023-04-07T11:08:08.239Z,43.93
2023-04-07T11:10:35.895Z,44.17
2023-04-07T11:13:04.013Z,44.07
2023-04-07T11:15:30.966Z,43.75
2023-04-07T11:18:14.967Z,43.25
2023-04-07T11:20:52.829Z,41.85
2023-04-07T11:23:21.054Z,41.67
2023-04-07T11:25:48.495Z,42.75
2023-04-07T11:28:15.242Z,41.34
2023-04-07T11:30:46.368Z,41.51
2023-04-07T11:33:16.683Z,41.27
2023-04-07T11:35:52.544Z,41.06
2023-04-07T11:38:19.798Z,40.90
2023-04-07T11:40:46.471Z,41.32
2023-04-07T11:43:17.519Z,41.28
2023-04-07T11:45:44.609Z,40.88
2023-04-07T11:48:27.003Z,41.00
2023-04-07T11:50:53.626Z,40.82
2023-04-07T11:53:30.273Z,40.70
2023-04-07T11:56:03.931Z,41.27
2023-04-07T11:58:30.604Z,42.09
2023-04-07T12:00:58.288Z,41.69
2023-04-07T12:03:25.241Z,41.76
2023-04-07T12:05:52.427Z,41.84
2023-04-07T12:08:19.880Z,40.70
2023-04-07T12:10:46.780Z,41.04
2023-04-07T12:13:13.814Z,40.83
2023-04-07T12:15:40.388Z,40.45
2023-04-07T12:18:07.071Z,39.85
2023-04-07T12:20:34.581Z,39.96
2023-04-07T12:23:02.616Z,39.13
2023-04-07T12:25:29.241Z,39.59
2023-04-07T12:27:56.100Z,40.07
2023-04-07T12:30:22.765Z,39.48
2023-04-07T12:32:49.517Z,40.01
2023-04-07T12:35:16.213Z,39.69
2023-04-07T12:37:42.816Z,39.92
2023-04-07T12:40:09.793Z,40.39
2023-04-07T12:42:36.432Z,40.92
2023-04-07T12:45:03.598Z,41.17
2023-04-07T12:47:30.203Z,41.35
2023-04-07T12:49:56.831Z,41.46
2023-04-07T12:52:23.448Z,41.57
2023-04-07T12:54:50.119Z,41.20
2023-04-07T12:57:16.977Z,41.77
2023-04-07T12:59:43.579Z,42.07
2023-04-07T13:02:10.549Z,42.86
2023-04-07T13:04:40.779Z,47.32
2023-04-07T13:07:08.442Z,49.70
2023-04-07T13:09:35.071Z,48.23
2023-04-07T13:12:01.937Z,48.48
2023-04-07T13:14:28.524Z,46.76
2023-04-07T13:16:55.118Z,48.40
2023-04-07T13:19:22.068Z,48.25
2023-04-07T13:21:49.302Z,52.69
2023-04-07T13:24:16.027Z,55.63
2023-04-07T13:26:42.704Z,59.77
2023-04-07T13:29:09.291Z,63.23
2023-04-07T13:31:36.056Z,64.07
2023-04-07T13:34:02.733Z,65.28
2023-04-07T13:36:30.323Z,74.30
2023-04-07T13:38:57.568Z,75.66
2023-04-07T13:41:24.260Z,76.84
2023-04-07T13:43:51.273Z,75.18
2023-04-07T13:46:27.969Z,73.74
2023-04-07T13:48:55.912Z,72.53
2023-04-07T13:51:23.052Z,71.55
2023-04-07T13:53:49.907Z,72.05
2023-04-07T13:56:16.819Z,71.67
2023-04-07T13:58:43.491Z,74.78
2023-04-07T14:01:10.200Z,76.48
2023-04-07T14:03:37.566Z,77.68
2023-04-07T14:06:04.392Z,78.48
2023-04-07T14:08:31.036Z,79.20
2023-04-07T14:10:57.764Z,79.95
2023-04-07T14:13:24.962Z,81.29
2023-04-07T14:15:53.348Z,83.24
2023-04-07T14:18:20.133Z,83.95
2023-04-07T14:20:46.849Z,84.50
2023-04-07T14:23:16.652Z,83.47
2023-04-07T14:25:47.793Z,85.55
2023-04-07T14:28:14.701Z,83.49
2023-04-07T14:30:41.430Z,82.78
2023-04-07T14:33:08.397Z,84.06
2023-04-07T14:35:37.174Z,89.73
2023-04-07T14:38:03.904Z,86.49
2023-04-07T14:40:30.722Z,87.35
2023-04-07T14:45:28.961Z,93.28
2023-04-07T14:47:55.892Z,95.63
2023-04-07T14:50:23.939Z,91.87
2023-04-07T14:52:50.813Z,96.74
2023-04-07T14:55:18.413Z,100.00
2023-04-07T14:57:45.027Z,100.00
2023-04-07T15:00:12.045Z,100.00
2023-04-07T15:02:39.595Z,100.00
2023-04-07T15:05:07.031Z,100.00
2023-04-07T15:07:33.656Z,100.00
2023-04-07T15:10:00.500Z,100.00
2023-04-07T15:12:29.878Z,100.00
2023-04-07T15:14:56.594Z,100.00
2023-04-07T15:17:33.114Z,100.00
2023-04-07T15:20:07.471Z,100.00
2023-04-07T15:22:34.244Z,100.00
2023-04-07T15:25:01.315Z,100.00
2023-04-07T15:27:27.940Z,100.00
2023-04-07T15:29:54.649Z,100.00
2023-04-07T15:32:21.249Z,100.00
2023-04-07T15:34:47.882Z,100.00
2023-04-07T15:37:14.548Z,100.00
2023-04-07T15:39:41.150Z,100.00
2023-04-07T15:42:12.413Z,100.00
2023-04-07T15:44:40.102Z,100.00
2023-04-07T15:47:07.411Z,100.00
2023-04-07T15:49:34.708Z,100.00
2023-04-07T15:52:01.610Z,100.00
2023-04-07T15:54:28.308Z,100.00
2023-04-07T15:56:54.909Z,100.00
2023-04-07T15:59:21.588Z,100.00
2023-04-07T16:01:48.372Z,100.00
2023-04-07T16:04:15.112Z,100.00
2023-04-07T16:06:41.991Z,100.00
2023-04-07T16:09:08.590Z,100.00
2023-04-07T16:11:35.670Z,100.00
2023-04-07T16:14:02.283Z,100.00
2023-04-07T16:16:31.020Z,100.00
2023-04-07T16:18:57.725Z,100.00
2023-04-07T16:21:24.381Z,100.00
2023-04-07T16:23:51.038Z,100.00
2023-04-07T16:26:17.667Z,100.00
2023-04-07T16:28:44.434Z,100.00
2023-04-07T16:31:12.506Z,100.00
2023-04-07T16:33:39.445Z,100.00
2023-04-07T16:36:09.211Z,100.00
2023-04-07T16:38:36.164Z,100.00
2023-04-07T16:41:04.784Z,100.00
2023-04-07T16:43:31.784Z,100.00
2023-04-07T16:46:00.304Z,100.00
2023-04-07T16:48:27.125Z,100.00
2023-04-07T16:50:53.838Z,100.00
2023-04-07T16:53:21.464Z,100.00
2023-04-07T16:55:48.349Z,100.00
2023-04-07T16:58:19.151Z,100.00
2023-04-07T17:00:46.575Z,100.00
2023-04-07T17:03:16.192Z,100.00
2023-04-07T17:05:44.898Z,100.00
2023-04-07T17:08:11.802Z,100.00
2023-04-07T17:10:38.485Z,100.00
2023-04-07T17:13:05.200Z,100.00
2023-04-07T17:15:31.840Z,100.00
2023-04-07T17:17:58.770Z,100.00
2023-04-07T17:20:25.488Z,100.00
2023-04-07T17:22:52.368Z,100.00
2023-04-07T17:25:19.161Z,100.00
2023-04-07T17:27:48.136Z,100.00
2023-04-07T17:30:14.976Z,100.00
2023-04-07T17:32:41.642Z,100.00
2023-04-07T17:35:08.526Z,100.00
2023-04-07T17:37:35.154Z,100.00
2023-04-07T17:40:01.972Z,100.00
2023-04-07T17:42:28.739Z,100.00
2023-04-07T17:44:55.980Z,100.00
2023-04-07T17:47:22.939Z,100.00
2023-04-07T17:49:49.621Z,100.00
2023-04-07T17:52:16.742Z,100.00
2023-04-07T17:54:43.336Z,100.00
2023-04-07T17:57:10.010Z,100.00
2023-04-07T17:59:36.676Z,100.00
2023-04-07T18:02:09.173Z,100.00
2023-04-07T18:04:37.049Z,100.00
2023-04-07T18:07:04.579Z,100.00
2023-04-07T18:09:31.626Z,100.00
2023-04-07T18:11:58.352Z,100.00
2023-04-07T18:14:26.193Z,100.00
2023-04-07T18:16:54.771Z,100.00
2023-04-07T18:19:23.101Z,100.00
2023-04-07T18:21:52.435Z,100.00
2023-04-07T18:24:20.975Z,100.00
2023-04-07T18:26:48.090Z,100.00
2023-04-07T18:29:15.064Z,100.00
2023-04-07T18:31:45.224Z,100.00
2023-04-07T18:34:12.219Z,100.00
2023-04-07T18:36:41.272Z,100.00
2023-04-07T18:39:08.050Z,100.00
2023-04-07T18:41:34.987Z,100.00
2023-04-07T18:44:01.659Z,100.00
2023-04-07T18:46:28.404Z,100.00
2023-04-07T18:48:55.052Z,100.00
2023-04-07T18:51:21.992Z,100.00
2023-04-07T18:53:48.812Z,100.00
2023-04-07T18:56:15.893Z,100.00
2023-04-07T18:58:45.305Z,100.00
2023-04-07T19:01:13.463Z,100.00
2023-04-07T19:03:40.866Z,100.00
2023-04-07T19:06:08.134Z,100.00
2023-04-07T19:08:35.474Z,100.00
2023-04-07T19:11:02.132Z,100.00
2023-04-07T19:13:28.744Z,100.00
2023-04-07T19:15:55.979Z,100.00
2023-04-07T19:18:22.810Z,100.00
2023-04-07T19:20:49.444Z,100.00
2023-04-07T19:23:16.107Z,100.00
2023-04-07T19:25:45.705Z,100.00
2023-04-07T19:28:12.858Z,100.00
2023-04-07T19:30:40.067Z,100.00
2023-04-07T19:33:06.942Z,100.00
2023-04-07T19:35:34.376Z,100.00
2023-04-07T19:38:01.389Z,100.00
2023-04-07T19:40:28.159Z,100.00
2023-04-07T19:42:56.255Z,100.00
2023-04-07T19:45:22.912Z,100.00
2023-04-07T19:47:49.799Z,100.00
2023-04-07T19:50:16.660Z,100.00
2023-04-07T19:52:45.275Z,100.00
2023-04-07T19:55:12.672Z,100.00
2023-04-07T19:57:42.164Z,100.00
2023-04-07T20:00:09.570Z,100.00
2023-04-07T20:02:36.965Z,100.00
2023-04-07T20:05:04.512Z,100.00
2023-04-07T20:07:32.063Z,100.00
2023-04-07T20:09:59.126Z,100.00
2023-04-07T20:12:25.922Z,100.00
2023-04-07T20:14:52.488Z,100.00
2023-04-07T20:17:22.160Z,100.00
2023-04-07T20:19:48.793Z,100.00
2023-04-07T20:22:15.710Z,100.00
2023-04-07T20:24:42.461Z,100.00
2023-04-07T20:27:09.057Z,100.00
2023-04-07T20:29:35.995Z,100.00
2023-04-07T20:32:02.665Z,100.00
2023-04-07T20:34:29.342Z,100.00
2023-04-07T20:36:56.002Z,100.00
2023-04-07T20:39:22.891Z,100.00
2023-04-07T20:41:49.534Z,100.00
2023-04-07T20:44:16.189Z,100.00
2023-04-07T20:46:44.083Z,100.00
2023-04-07T20:49:11.008Z,100.00
2023-04-07T20:51:37.614Z,100.00
2023-04-07T20:54:04.619Z,100.00
2023-04-07T20:56:32.142Z,100.00
2023-04-07T20:58:58.873Z,100.00
2023-04-07T21:01:25.701Z,100.00
2023-04-07T21:03:53.987Z,100.00
2023-04-07T21:06:21.006Z,100.00
2023-04-07T21:08:47.810Z,100.00
2023-04-07T21:11:14.745Z,100.00
2023-04-07T21:13:41.417Z,100.00
2023-04-07T21:16:08.116Z,100.00
2023-04-07T21:18:34.765Z,100.00
2023-04-07T21:21:04.478Z,100.00
2023-04-07T21:23:32.087Z,100.00
2023-04-07T21:26:02.937Z,100.00
2023-04-07T21:28:29.619Z,100.00
2023-04-07T21:30:56.967Z,100.00
2023-04-07T21:33:23.933Z,100.00
2023-04-07T21:35:51.149Z,100.00
2023-04-07T21:38:17.876Z,100.00
2023-04-07T21:40:44.544Z,100.00
2023-04-07T21:43:12.687Z,100.00
2023-04-07T21:45:39.374Z,100.00
2023-04-07T21:48:06.730Z,100.00
2023-04-07T21:50:33.768Z,100.00
2023-04-07T21:53:00.512Z,100.00
2023-04-07T21:55:27.419Z,100.00
2023-04-07T21:57:54.152Z,100.00
2023-04-07T22:00:21.953Z,100.00
2023-04-07T22:02:48.793Z,100.00
2023-04-07T22:05:16.102Z,100.00
2023-04-07T22:07:42.823Z,100.00
2023-04-07T22:10:09.657Z,100.00
2023-04-07T22:12:36.667Z,100.00
2023-04-07T22:15:03.513Z,100.00
2023-04-07T22:17:30.813Z,100.00
2023-04-07T22:19:57.492Z,100.00
2023-04-07T22:22:24.103Z,100.00
2023-04-07T22:24:50.696Z,100.00
2023-04-07T22:27:17.350Z,100.00
2023-04-07T22:29:44.081Z,100.00
2023-04-07T22:32:10.698Z,100.00
2023-04-07T22:34:37.264Z,100.00
2023-04-07T22:37:03.888Z,100.00
2023-04-07T22:39:30.578Z,100.00
2023-04-07T22:41:57.174Z,100.00
2023-04-07T22:44:23.836Z,100.00
2023-04-07T22:46:50.532Z,100.00
2023-04-07T22:49:17.263Z,100.00
2023-04-07T22:51:48.638Z,100.00
2023-04-07T22:54:18.381Z,100.00
2023-04-07T22:56:45.389Z,100.00
2023-04-07T22:59:12.021Z,100.00
2023-04-07T23:01:38.733Z,100.00
2023-04-07T23:04:05.441Z,100.00
2023-04-07T23:06:32.281Z,100.00
2023-04-07T23:08:59.297Z,100.00
2023-04-07T23:11:26.508Z,100.00
2023-04-07T23:13:53.168Z,100.00
2023-04-07T23:16:19.831Z,100.00
2023-04-07T23:18:46.586Z,100.00
2023-04-07T23:21:13.300Z,100.00
2023-04-07T23:23:40.030Z,100.00
2023-04-07T23:26:09.256Z,100.00
2023-04-07T23:28:36.085Z,100.00
2023-04-07T23:31:02.865Z,100.00
2023-04-07T23:33:31.025Z,100.00
2023-04-07T23:35:58.656Z,100.00
2023-04-07T23:38:26.070Z,100.00
2023-04-07T23:40:53.439Z,100.00
2023-04-07T23:43:20.219Z,100.00
2023-04-07T23:45:46.950Z,100.00
2023-04-07T23:48:13.639Z,100.00
2023-04-07T23:50:40.373Z,100.00
2023-04-07T23:53:06.998Z,100.00
2023-04-07T23:55:33.636Z,100.00
2023-04-07T23:58:00.627Z,100.00
